createdAt,value
2023-03-06T00:01:15.862Z,33
2023-03-06T00:03:44.178Z,43
2023-03-06T00:06:12.460Z,34
2023-03-06T00:08:40.681Z,40
2023-03-06T00:12:23.062Z,41
2023-03-06T00:14:51.345Z,36
2023-03-06T00:17:19.618Z,38
2023-03-06T00:19:47.882Z,36
2023-03-06T00:22:16.135Z,33
2023-03-06T00:24:44.414Z,33
2023-03-06T00:28:18.632Z,34
2023-03-06T00:30:46.858Z,33
2023-03-06T00:33:15.185Z,36
2023-03-06T00:35:43.424Z,35
2023-03-06T00:38:11.694Z,33
2023-03-06T00:40:39.946Z,36
2023-03-06T00:44:22.333Z,38
2023-03-06T00:46:50.618Z,35
2023-03-06T00:49:18.887Z,38
2023-03-06T00:51:47.117Z,37
2023-03-06T00:54:15.403Z,36
2023-03-06T00:56:43.675Z,37
2023-03-06T00:59:11.913Z,38
2023-03-06T01:01:40.184Z,40
2023-03-06T01:05:22.619Z,39
2023-03-06T01:07:50.880Z,42
2023-03-06T01:10:19.415Z,40
2023-03-06T01:12:47.379Z,44
2023-03-06T01:16:30.043Z,36
2023-03-06T01:20:12.186Z,40
2023-03-06T01:22:40.481Z,36
2023-03-06T01:26:22.892Z,36
2023-03-06T01:31:11.196Z,42
2023-03-06T01:33:39.454Z,51
2023-03-06T01:37:21.847Z,42
2023-03-06T01:39:50.166Z,41
2023-03-06T01:42:18.404Z,42
2023-03-06T01:44:46.661Z,38
2023-03-06T01:47:14.941Z,40
2023-03-06T01:49:43.220Z,32
2023-03-06T01:53:25.603Z,36
2023-03-06T01:55:53.858Z,35
2023-03-06T01:58:22.157Z,39
2023-03-06T02:00:50.461Z,38
2023-03-06T02:03:18.650Z,39
2023-03-06T02:05:46.984Z,41
2023-03-06T02:08:15.210Z,40
2023-03-06T02:10:43.483Z,43
2023-03-06T02:13:11.753Z,45
2023-03-06T02:15:40.033Z,47
2023-03-06T02:19:22.385Z,47
2023-03-06T02:21:50.671Z,45
2023-03-06T02:24:18.927Z,45
2023-03-06T02:26:47.194Z,45
2023-03-06T02:29:07.266Z,41
2023-03-06T02:31:35.640Z,46
2023-03-06T02:35:18.074Z,48
2023-03-06T02:37:54.409Z,51
2023-03-06T02:40:22.658Z,54
2023-03-06T02:42:50.923Z,49
2023-03-06T02:45:19.226Z,48
2023-03-06T02:47:47.468Z,51
2023-03-06T02:50:15.782Z,54
2023-03-06T02:52:44.010Z,51
2023-03-06T02:55:12.253Z,53
2023-03-06T02:57:40.573Z,52
2023-03-06T03:01:22.988Z,51
2023-03-06T03:03:51.219Z,51
2023-03-06T03:06:19.466Z,52
2023-03-06T03:08:47.735Z,54
2023-03-06T03:11:15.997Z,46
2023-03-06T03:13:44.270Z,56
2023-03-06T03:16:12.547Z,52
2023-03-06T03:18:40.836Z,52
2023-03-06T03:22:23.203Z,55
2023-03-06T03:24:51.543Z,50
2023-03-06T03:27:19.717Z,47
2023-03-06T03:32:08.074Z,51
2023-03-06T03:35:50.531Z,47
2023-03-06T03:38:18.769Z,55
2023-03-06T03:40:47.017Z,49
2023-03-06T03:43:15.233Z,54
2023-03-06T03:45:43.568Z,57
2023-03-06T03:49:25.969Z,57
2023-03-06T03:51:54.200Z,58
2023-03-06T03:54:22.537Z,60
2023-03-06T03:56:50.712Z,63
2023-03-06T03:59:18.993Z,55
2023-03-06T04:01:47.306Z,61
2023-03-06T04:04:15.590Z,64
2023-03-06T04:06:43.811Z,68
2023-03-06T04:09:12.095Z,62
2023-03-06T04:11:40.348Z,68
2023-03-06T04:15:22.736Z,65
2023-03-06T04:17:50.997Z,67
2023-03-06T04:20:19.270Z,63
2023-03-06T04:22:47.519Z,71
2023-03-06T04:25:15.835Z,67
2023-03-06T04:27:44.094Z,70
2023-03-06T04:32:32.456Z,67
2023-03-06T04:36:14.775Z,68
2023-03-06T04:38:43.117Z,61
2023-03-06T04:42:25.488Z,67
2023-03-06T04:44:53.765Z,71
2023-03-06T04:47:22.010Z,67
2023-03-06T04:49:50.266Z,68
2023-03-06T04:52:18.581Z,64
2023-03-06T04:54:46.813Z,74
2023-03-06T04:57:15.076Z,66
2023-03-06T04:59:43.338Z,68
2023-03-06T05:02:11.605Z,66
2023-03-06T05:04:39.866Z,75
2023-03-06T05:08:22.253Z,68
2023-03-06T05:10:50.544Z,66
2023-03-06T05:13:18.821Z,71
2023-03-06T05:15:47.075Z,71
2023-03-06T05:18:15.356Z,78
2023-03-06T05:20:43.618Z,74
2023-03-06T05:23:11.909Z,74
2023-03-06T05:25:40.194Z,73
2023-03-06T05:29:22.560Z,80
2023-03-06T05:34:10.838Z,70
2023-03-06T05:36:39.106Z,78
2023-03-06T05:40:21.525Z,72
2023-03-06T05:42:49.824Z,74
2023-03-06T05:45:18.065Z,77
2023-03-06T05:47:46.351Z,75
2023-03-06T05:50:14.617Z,72
2023-03-06T05:52:42.889Z,75
2023-03-06T05:56:25.289Z,75
2023-03-06T05:58:53.575Z,77
2023-03-06T06:01:21.812Z,67
2023-03-06T06:03:50.120Z,74
2023-03-06T06:06:18.306Z,69
2023-03-06T06:08:46.608Z,71
2023-03-06T06:11:14.836Z,77
2023-03-06T06:13:43.136Z,73
2023-03-06T06:16:11.413Z,74
2023-03-06T06:18:41.210Z,78
2023-03-06T06:22:22.102Z,67
2023-03-06T06:24:50.317Z,85
2023-03-06T06:27:18.587Z,75
2023-03-06T06:33:21.312Z,84
2023-03-06T06:35:49.423Z,91
2023-03-06T06:38:17.676Z,84
2023-03-06T06:40:58.353Z,84
2023-03-06T06:43:14.214Z,86
2023-03-06T06:45:50.617Z,80
2023-03-06T06:48:18.956Z,77
2023-03-06T06:50:47.137Z,77
2023-03-06T06:53:15.448Z,83
2023-03-06T06:55:43.649Z,87
2023-03-06T06:58:11.918Z,83
2023-03-06T07:00:40.185Z,77
2023-03-06T07:04:22.570Z,80
2023-03-06T07:06:50.831Z,78
2023-03-06T07:09:19.135Z,84
2023-03-06T07:11:47.422Z,82
2023-03-06T07:14:16.678Z,85
2023-03-06T07:16:43.931Z,93
2023-03-06T07:19:12.171Z,82
2023-03-06T07:21:40.483Z,86
2023-03-06T07:25:22.839Z,85
2023-03-06T07:27:53.578Z,85
2023-03-06T07:31:25.480Z,94
2023-03-06T07:33:53.603Z,95
2023-03-06T07:36:21.864Z,89
2023-03-06T07:38:50.135Z,84
2023-03-06T07:41:19.788Z,93
2023-03-06T07:43:46.660Z,91
2023-03-06T07:46:14.933Z,87
2023-03-06T07:48:43.183Z,97
2023-03-06T07:52:25.604Z,91
2023-03-06T07:54:53.861Z,99
2023-03-06T07:57:25.238Z,93
2023-03-06T07:59:50.396Z,87
2023-03-06T08:02:18.647Z,104
2023-03-06T08:04:46.938Z,96
2023-03-06T08:07:15.282Z,97
2023-03-06T08:09:43.541Z,100
2023-03-06T08:13:25.858Z,94
2023-03-06T08:15:54.136Z,98
2023-03-06T08:18:22.371Z,92
2023-03-06T08:20:50.667Z,102
2023-03-06T08:23:18.922Z,104
2023-03-06T08:25:47.215Z,86
2023-03-06T08:28:15.475Z,104
2023-03-06T08:33:03.787Z,107
2023-03-06T08:35:32.074Z,97
2023-03-06T08:39:14.462Z,100
2023-03-06T08:41:42.732Z,96
2023-03-06T08:44:10.986Z,90
2023-03-06T08:46:39.295Z,101
2023-03-06T08:50:21.661Z,80
2023-03-06T08:52:49.920Z,89
2023-03-06T08:55:18.201Z,98
2023-03-06T08:57:46.447Z,89
2023-03-06T09:00:14.749Z,90
2023-03-06T09:02:43.004Z,97
2023-03-06T09:06:25.376Z,102
2023-03-06T09:08:53.649Z,93
2023-03-06T09:11:21.899Z,98
2023-03-06T09:13:50.197Z,92
2023-03-06T09:16:18.476Z,92
2023-03-06T09:18:46.717Z,98
2023-03-06T09:21:14.952Z,95
2023-03-06T09:23:43.245Z,100
2023-03-06T09:27:25.622Z,107
2023-03-06T09:29:53.945Z,102
2023-03-06T09:32:13.963Z,113
2023-03-06T09:34:42.314Z,109
2023-03-06T09:38:24.648Z,110
2023-03-06T09:40:52.918Z,105
2023-03-06T09:43:21.191Z,101
2023-03-06T09:45:49.506Z,104
2023-03-06T09:48:17.743Z,125
2023-03-06T09:50:45.958Z,106
2023-03-06T09:53:14.305Z,109
2023-03-06T09:55:42.529Z,109
2023-03-06T09:59:24.992Z,111
2023-03-06T10:01:53.222Z,98
2023-03-06T10:04:21.429Z,104
2023-03-06T10:06:49.735Z,101
2023-03-06T10:09:18.023Z,99
2023-03-06T10:11:46.243Z,97
2023-03-06T10:14:14.581Z,98
2023-03-06T10:16:42.880Z,95
2023-03-06T10:20:25.187Z,100
2023-03-06T10:23:00.955Z,100
2023-03-06T10:25:21.710Z,101
2023-03-06T10:27:49.997Z,96
2023-03-06T10:30:18.274Z,83
2023-03-06T10:32:48.956Z,91
2023-03-06T10:35:14.789Z,92
2023-03-06T10:37:43.097Z,97
2023-03-06T10:41:25.432Z,98
2023-03-06T10:46:13.834Z,92
2023-03-06T10:48:42.479Z,92
2023-03-06T10:52:32.670Z,91
2023-03-06T10:56:15.024Z,88
2023-03-06T10:58:43.342Z,91
2023-03-06T11:02:25.695Z,89
2023-03-06T11:04:54.038Z,99
2023-03-06T11:07:22.232Z,89
2023-03-06T11:09:50.563Z,96
2023-03-06T11:12:18.765Z,85
2023-03-06T11:14:47.040Z,94
2023-03-06T11:17:15.301Z,98
2023-03-06T11:19:43.576Z,87
2023-03-06T11:22:11.854Z,88
2023-03-06T11:24:40.093Z,98
2023-03-06T11:28:22.556Z,83
2023-03-06T11:30:50.773Z,85
2023-03-06T11:33:19.051Z,84
2023-03-06T11:35:47.381Z,88
2023-03-06T11:39:29.669Z,94
2023-03-06T11:43:12.094Z,89
2023-03-06T11:45:40.342Z,81
2023-03-06T11:49:22.787Z,89
2023-03-06T11:51:51.020Z,86
2023-03-06T11:55:25.249Z,92
2023-03-06T11:57:53.531Z,95
2023-03-06T12:00:21.780Z,95
2023-03-06T12:02:50.085Z,96
2023-03-06T12:05:18.366Z,91
2023-03-06T12:07:46.594Z,98
2023-03-06T12:10:14.844Z,97
2023-03-06T12:12:43.106Z,86
2023-03-06T12:15:11.377Z,87
2023-03-06T12:17:39.693Z,85
2023-03-06T12:21:22.036Z,83
2023-03-06T12:23:50.298Z,96
2023-03-06T12:26:18.604Z,83
2023-03-06T12:28:46.828Z,86
2023-03-06T12:37:25.911Z,89
2023-03-06T13:04:45.002Z,94
2023-03-06T13:08:27.354Z,103
2023-03-06T13:10:55.556Z,107
2023-03-06T13:13:23.872Z,107
2023-03-06T13:15:52.079Z,108
2023-03-06T13:18:20.351Z,108
2023-03-06T13:20:48.591Z,99
2023-03-06T13:23:16.880Z,111
2023-03-06T13:25:45.231Z,99
2023-03-06T13:28:13.385Z,92
2023-03-06T13:30:41.748Z,92
2023-03-06T13:34:24.098Z,77
2023-03-06T13:36:52.344Z,70
2023-03-06T13:39:20.648Z,56
2023-03-06T13:41:48.858Z,58
2023-03-06T13:44:49.557Z,52
2023-03-06T13:49:13.685Z,51
2023-03-06T13:51:41.977Z,62
2023-03-06T13:55:24.341Z,49
2023-03-06T13:57:52.630Z,49
2023-03-06T14:00:20.883Z,49
2023-03-06T14:02:49.168Z,50
2023-03-06T14:05:17.413Z,51
2023-03-06T14:10:05.763Z,58
2023-03-06T14:12:34.033Z,58
2023-03-06T14:16:16.506Z,61
2023-03-06T14:18:44.750Z,76
2023-03-06T14:21:13.002Z,72
2023-03-06T14:23:41.200Z,69
2023-03-06T14:27:23.640Z,74
2023-03-06T14:29:51.929Z,75
2023-03-06T14:32:20.173Z,67
2023-03-06T14:34:48.433Z,75
2023-03-06T14:37:16.720Z,67
2023-03-06T14:39:44.936Z,72
2023-03-06T14:42:13.236Z,75
2023-03-06T14:44:41.535Z,78
2023-03-06T14:48:23.879Z,76
2023-03-06T14:50:52.170Z,75
2023-03-06T14:53:20.411Z,68
2023-03-06T14:55:48.708Z,76
2023-03-06T14:58:16.972Z,83
2023-03-06T15:00:45.366Z,75
2023-03-06T15:03:13.483Z,74
2023-03-06T15:05:41.768Z,75
2023-03-06T15:09:15.964Z,71
2023-03-06T15:11:44.305Z,74
2023-03-06T15:14:20.716Z,91
2023-03-06T15:16:48.980Z,77
2023-03-06T15:19:17.219Z,75
2023-03-06T15:21:45.490Z,83
2023-03-06T15:24:13.782Z,80
2023-03-06T15:26:42.004Z,85
2023-03-06T15:30:24.423Z,80
2023-03-06T15:32:52.694Z,81
2023-03-06T15:35:20.964Z,84
2023-03-06T15:37:49.190Z,77
2023-03-06T15:40:17.543Z,81
2023-03-06T15:42:45.755Z,82
2023-03-06T15:45:14.060Z,83
2023-03-06T15:47:42.255Z,90
2023-03-06T15:51:24.672Z,96
2023-03-06T15:53:53.171Z,96
2023-03-06T15:56:21.189Z,91
2023-03-06T15:58:49.482Z,102
2023-03-06T16:01:17.832Z,74
2023-03-06T16:03:46.072Z,81
2023-03-06T16:06:14.275Z,78
2023-03-06T16:08:42.573Z,81
2023-03-06T16:12:16.765Z,83
2023-03-06T16:14:45.068Z,78
2023-03-06T16:17:13.298Z,79
2023-03-06T16:19:41.601Z,83
2023-03-06T16:23:23.987Z,79
2023-03-06T16:25:52.218Z,74
2023-03-06T16:28:20.445Z,77
2023-03-06T16:30:48.801Z,84
2023-03-06T16:33:17.076Z,90
2023-03-06T16:35:45.301Z,89
2023-03-06T16:38:13.523Z,75
2023-03-06T16:40:41.833Z,81
2023-03-06T16:44:24.230Z,80
2023-03-06T16:46:52.480Z,78
2023-03-06T16:49:20.815Z,106
2023-03-06T16:51:48.994Z,92
2023-03-06T16:54:17.276Z,80
2023-03-06T16:56:45.563Z,83
2023-03-06T16:59:13.818Z,92
2023-03-06T17:01:42.115Z,88
2023-03-06T17:05:24.460Z,91
2023-03-06T17:07:52.805Z,87
2023-03-06T17:10:21.025Z,97
2023-03-06T17:12:49.334Z,90
2023-03-06T17:15:17.525Z,94
2023-03-06T17:17:45.807Z,81
2023-03-06T17:21:20.048Z,86
2023-03-06T17:23:48.272Z,82
2023-03-06T17:26:16.554Z,82
2023-03-06T17:28:44.805Z,84
2023-03-06T17:31:13.106Z,83
2023-03-06T17:33:41.399Z,82
2023-03-06T17:37:23.818Z,81
2023-03-06T17:39:52.040Z,79
2023-03-06T17:42:20.274Z,77
2023-03-06T17:44:48.602Z,83
2023-03-06T17:47:19.962Z,77
2023-03-06T17:49:45.085Z,73
2023-03-06T17:52:13.324Z,80
2023-03-06T17:54:41.620Z,81
2023-03-06T17:58:25.072Z,95
2023-03-06T18:00:52.319Z,89
2023-03-06T18:03:20.578Z,85
2023-03-06T18:05:48.812Z,86
2023-03-06T18:08:17.118Z,90
2023-03-06T18:10:45.333Z,88
2023-03-06T18:13:13.627Z,84
2023-03-06T18:15:41.871Z,88
2023-03-06T18:19:24.299Z,83
2023-03-06T18:24:12.601Z,86
2023-03-06T18:26:40.866Z,91
2023-03-06T18:30:23.275Z,86
2023-03-06T18:32:51.561Z,90
2023-03-06T18:35:19.879Z,81
2023-03-06T18:37:48.058Z,83
2023-03-06T18:40:16.377Z,78
2023-03-06T18:42:44.625Z,84
2023-03-06T18:45:12.886Z,91
2023-03-06T18:47:41.152Z,91
2023-03-06T18:51:23.555Z,92
2023-03-06T18:53:51.811Z,97
2023-03-06T18:56:20.066Z,98
2023-03-06T18:58:48.327Z,95
2023-03-06T19:01:16.684Z,93
2023-03-06T19:03:44.935Z,94
2023-03-06T19:06:13.157Z,96
2023-03-06T19:08:41.394Z,93
2023-03-06T19:13:17.506Z,92
2023-03-06T19:15:45.839Z,97
2023-03-06T19:18:14.048Z,97
2023-03-06T19:20:42.400Z,91
2023-03-06T19:23:10.570Z,88
2023-03-06T19:25:38.887Z,95
2023-03-06T19:28:07.098Z,88
2023-03-06T19:30:35.367Z,93
2023-03-06T19:34:17.748Z,98
2023-03-06T19:36:46.091Z,96
2023-03-06T19:39:14.313Z,97
2023-03-06T19:41:42.562Z,91
2023-03-06T19:44:10.826Z,99
2023-03-06T19:46:39.117Z,100
2023-03-06T19:49:07.417Z,96
2023-03-06T19:51:35.641Z,95
2023-03-06T19:55:18.074Z,101
2023-03-06T19:57:46.313Z,101
2023-03-06T20:00:14.613Z,111
2023-03-06T20:02:42.858Z,94
2023-03-06T20:05:11.147Z,93
2023-03-06T20:07:39.453Z,96
2023-03-06T20:10:07.657Z,102
2023-03-06T20:13:50.081Z,105
2023-03-06T20:16:18.267Z,119
2023-03-06T20:18:46.622Z,110
2023-03-06T20:21:14.840Z,102
2023-03-06T20:26:03.197Z,95
2023-03-06T20:28:31.456Z,91
2023-03-06T20:33:28.261Z,102
2023-03-06T20:37:10.369Z,95
2023-03-06T20:39:38.698Z,106
2023-03-06T20:43:21.009Z,107
2023-03-06T20:45:49.317Z,114
2023-03-06T20:48:17.565Z,108
2023-03-06T20:50:45.818Z,106
2023-03-06T20:53:14.076Z,119
2023-03-06T20:55:42.371Z,114
2023-03-06T20:58:10.627Z,129
2023-03-06T21:00:38.948Z,110
2023-03-06T21:03:07.195Z,116
2023-03-06T21:05:35.440Z,110
2023-03-06T21:09:17.838Z,112
2023-03-06T21:11:46.101Z,120
2023-03-06T21:14:14.381Z,115
2023-03-06T21:16:42.831Z,113
2023-03-06T21:19:10.856Z,115
2023-03-06T21:21:39.198Z,132
2023-03-06T21:27:41.641Z,113
2023-03-06T21:30:09.890Z,112
2023-03-06T21:32:38.290Z,120
2023-03-06T21:35:06.414Z,118
2023-03-06T21:37:34.689Z,113
2023-03-06T21:41:17.292Z,118
2023-03-06T21:43:45.385Z,122
2023-03-06T21:46:13.661Z,120
2023-03-06T21:48:41.900Z,120
2023-03-06T21:51:10.193Z,124
2023-03-06T21:53:38.471Z,126
2023-03-06T21:56:06.702Z,126
2023-03-06T21:58:34.963Z,124
2023-03-06T22:02:17.348Z,124
2023-03-06T22:07:13.881Z,120
2023-03-06T22:09:42.185Z,125
2023-03-06T22:12:10.419Z,122
2023-03-06T22:14:38.720Z,119
2023-03-06T22:17:07.968Z,123
2023-03-06T22:19:35.238Z,138
2023-03-06T22:24:23.597Z,122
2023-03-06T22:28:05.935Z,122
2023-03-06T22:30:34.263Z,117
2023-03-06T22:34:16.623Z,123
2023-03-06T22:36:44.910Z,135
2023-03-06T22:39:13.155Z,129
2023-03-06T22:41:41.408Z,114
2023-03-06T22:44:09.693Z,125
2023-03-06T22:46:37.947Z,126
2023-03-06T22:49:06.249Z,120
2023-03-06T22:51:34.495Z,118
2023-03-06T22:55:16.886Z,126
2023-03-06T22:57:45.136Z,124
2023-03-06T23:00:13.472Z,127
2023-03-06T23:02:41.679Z,130
2023-03-06T23:05:09.960Z,120
2023-03-06T23:07:38.213Z,101
2023-03-06T23:10:06.476Z,127
2023-03-06T23:12:34.718Z,120
2023-03-06T23:16:17.172Z,121
2023-03-06T23:18:45.459Z,115
2023-03-06T23:21:13.675Z,110
2023-03-06T23:23:41.983Z,117
2023-03-06T23:27:16.165Z,119
2023-03-06T23:29:52.639Z,111
2023-03-06T23:32:20.908Z,119
2023-03-06T23:34:49.182Z,110
2023-03-06T23:37:18.444Z,112
2023-03-06T23:39:45.729Z,113
2023-03-06T23:42:13.985Z,113
2023-03-06T23:44:42.218Z,108
2023-03-06T23:47:10.455Z,113
2023-03-06T23:49:38.764Z,115
2023-03-06T23:52:08.135Z,106
2023-03-06T23:54:35.266Z,107
2023-03-06T23:58:17.668Z,116
